Time;durP1;ratioP1;P1;durP2;ratioP2;P2;SDS_P1;SDS_P2;PMS_P1;PMS_P2;Temp;Humidity;BMP_temperature;BMP_pressure;BME280_temperature;BME280_humidity;BME280_pressure;Samples;Min_cycle;Max_cycle;Signal;HPM_P1;HPM_P2
2022/03/10 00:02:45;;;;;;;60.25;26.48;;;;;;;1.25;57.08;99915.56;5189424;28;20060;-67
2022/03/10 00:05:35;;;;;;;61.42;26.75;;;;;;;1.11;56.55;99915.28;5187610;28;20061;-67
2022/03/10 00:08:25;;;;;;;59.45;24.55;;;;;;;1.03;56.38;99915.59;5183611;28;20060;-67
2022/03/10 00:11:15;;;;;;;58.35;24.48;;;;;;;1.08;56.42;99929.31;5190306;28;20514;-67
2022/03/10 00:14:05;;;;;;;62.28;25.13;;;;;;;1.01;56.12;99919.19;5175616;28;20053;-67
2022/03/10 00:16:56;;;;;;;58.55;26.38;;;;;;;1.07;57.38;99925.00;5185321;28;20077;-67
2022/03/10 00:19:46;;;;;;;59.47;25.92;;;;;;;1.01;56.99;99927.84;5174625;28;20092;-67
2022/03/10 00:22:47;;;;;;;64.35;25.50;;;;;;;0.93;56.71;99925.56;5181818;28;20053;-67
2022/03/10 00:25:37;;;;;;;63.17;26.25;;;;;;;0.87;56.86;99925.78;5182343;28;20053;-67
2022/03/10 00:28:28;;;;;;;67.43;26.33;;;;;;;0.99;57.19;99929.66;5181820;28;20094;-67
2022/03/10 00:31:17;;;;;;;59.67;25.58;;;;;;;0.85;56.90;99930.22;5179820;28;20761;-67
2022/03/10 00:34:09;;;;;;;60.80;24.92;;;;;;;0.81;56.06;99935.63;5183241;28;20148;-67
2022/03/10 00:36:59;;;;;;;58.33;24.48;;;;;;;0.72;55.17;99939.44;5181050;28;20131;-67
2022/03/10 00:39:49;;;;;;;58.33;23.83;;;;;;;0.77;56.36;99947.09;5187065;28;20542;-67
2022/03/10 00:42:41;;;;;;;56.90;25.25;;;;;;;0.91;56.57;99950.03;5177141;28;20065;-67
2022/03/10 00:45:31;;;;;;;60.03;25.95;;;;;;;0.78;56.76;99951.41;5187312;28;20057;-67
2022/03/10 00:48:21;;;;;;;58.20;24.23;;;;;;;0.59;57.31;99943.41;5188833;28;20052;-67
2022/03/10 00:51:11;;;;;;;61.38;26.20;;;;;;;0.53;56.91;99941.91;5183576;28;20468;-67
2022/03/10 00:54:01;;;;;;;61.45;25.80;;;;;;;0.58;57.19;99945.19;5179340;28;20046;-67
2022/03/10 00:56:50;;;;;;;58.30;24.15;;;;;;;0.60;57.39;99945.13;5175462;28;20048;-67
2022/03/10 00:59:41;;;;;;;62.20;25.92;;;;;;;0.63;58.04;99935.44;5185859;28;20100;-67
2022/03/10 01:02:33;;;;;;;63.03;25.95;;;;;;;0.44;58.75;99930.03;5178689;28;20061;-67
2022/03/10 01:05:23;;;;;;;79.95;27.48;;;;;;;0.60;58.42;99927.72;5184995;28;20064;-67
2022/03/10 01:08:13;;;;;;;64.50;26.88;;;;;;;0.57;58.10;99937.41;5185452;28;20061;-67
2022/03/10 01:11:03;;;;;;;59.90;23.50;;;;;;;0.53;58.42;99944.50;5192973;28;20080;-67
2022/03/10 01:13:53;;;;;;;59.95;24.88;;;;;;;0.42;57.07;99939.66;5189501;28;20120;-67
2022/03/10 01:16:43;;;;;;;59.63;25.45;;;;;;;0.24;57.26;99929.94;5183310;28;20084;-67
2022/03/10 01:19:36;;;;;;;66.95;25.83;;;;;;;0.27;57.85;99942.03;5196639;28;20400;-67
2022/03/10 01:22:26;;;;;;;61.15;26.05;;;;;;;0.15;59.33;99935.47;5195012;28;20045;-67
2022/03/10 01:25:18;;;;;;;69.35;27.27;;;;;;;0.05;60.33;99942.78;5181991;28;20042;-67
2022/03/10 01:28:08;;;;;;;58.92;24.13;;;;;;;0.35;58.15;99940.81;5182532;28;20502;-67
2022/03/10 01:30:58;;;;;;;75.68;27.60;;;;;;;0.43;59.03;99930.97;5185880;28;20057;-67
2022/03/10 01:33:48;;;;;;;64.30;25.50;;;;;;;0.34;58.99;99928.69;5183198;28;20057;-67
2022/03/10 01:36:40;;;;;;;70.80;26.73;;;;;;;0.26;58.84;99941.13;5191895;28;20053;-67
2022/03/10 01:39:32;;;;;;;72.13;27.30;;;;;;;0.24;58.45;99937.75;5179872;28;20712;-67
2022/03/10 01:42:23;;;;;;;64.13;25.08;;;;;;;0.27;58.84;99927.22;5179989;28;20061;-67
2022/03/10 01:45:13;;;;;;;63.55;27.52;;;;;;;0.41;59.30;99932.75;5176443;28;20677;-67
2022/03/10 01:48:03;;;;;;;67.53;25.17;;;;;;;0.36;59.27;99929.47;5191328;28;20566;-67
2022/03/10 01:50:54;;;;;;;63.00;25.23;;;;;;;0.10;58.18;99926.94;5188106;28;20072;-67
2022/03/10 01:53:44;;;;;;;69.05;26.30;;;;;;;0.21;58.57;99932.66;5182580;28;20141;-67
2022/03/10 01:56:35;;;;;;;66.28;25.38;;;;;;;0.33;58.46;99929.59;5178966;28;20053;-67
2022/03/10 01:59:26;;;;;;;71.35;26.42;;;;;;;0.07;58.77;99934.91;5188925;28;20093;-67
2022/03/10 02:02:17;;;;;;;64.40;25.38;;;;;;;0.02;58.43;99929.00;5189278;28;20056;-67
2022/03/10 02:05:07;;;;;;;62.00;25.38;;;;;;;0.02;59.69;99939.41;5185621;28;20089;-67
2022/03/10 02:11:06;;;;;;;68.15;24.83;;;;;;;0.11;58.90;99939.94;5195005;28;20061;-67
2022/03/10 02:13:56;;;;;;;65.15;25.15;;;;;;;0.15;58.09;99935.47;5193498;28;20050;-67
2022/03/10 02:19:58;;;;;;;58.65;23.35;;;;;;;-0.16;58.86;99946.16;5185216;28;20104;-67
2022/03/10 02:22:49;;;;;;;65.18;23.77;;;;;;;-0.15;58.83;99943.47;5185552;28;20560;-67
2022/03/10 02:25:41;;;;;;;63.47;23.77;;;;;;;-0.29;59.22;99924.84;5189223;28;20057;-67
2022/03/10 02:28:32;;;;;;;59.20;23.73;;;;;;;-0.04;57.96;99936.13;5196326;28;20418;-67
2022/03/10 02:31:23;;;;;;;57.53;23.02;;;;;;;0.01;57.93;99935.13;5186933;28;20049;-67
2022/03/10 02:34:13;;;;;;;51.28;22.70;;;;;;;-0.23;56.66;99935.06;5189853;28;20059;-67
2022/03/10 02:37:03;;;;;;;57.40;23.92;;;;;;;0.05;58.27;99939.31;5180477;28;20100;-67
2022/03/10 02:39:54;;;;;;;64.18;24.27;;;;;;;-0.13;59.39;99944.28;5183849;28;20511;-67
2022/03/10 02:42:44;;;;;;;55.97;22.88;;;;;;;-0.01;59.51;99946.44;5192920;28;20176;-67
2022/03/10 02:45:34;;;;;;;58.72;22.80;;;;;;;-0.13;58.80;99951.22;5198829;28;21027;-67
2022/03/10 02:48:25;;;;;;;51.42;22.15;;;;;;;-0.24;58.11;99956.81;5184009;28;20509;-67
2022/03/10 02:51:15;;;;;;;58.17;22.75;;;;;;;-0.42;57.56;99960.91;5194447;28;20056;-67
2022/03/10 02:54:06;;;;;;;64.07;25.60;;;;;;;-0.08;58.15;99963.19;5176680;28;20066;-67
2022/03/10 02:56:57;;;;;;;60.03;23.25;;;;;;;-0.12;58.17;99959.00;5185333;28;20049;-67
2022/03/10 02:59:47;;;;;;;59.47;23.55;;;;;;;-0.27;57.88;99959.53;5177805;28;20065;-67
2022/03/10 03:02:38;;;;;;;61.80;22.92;;;;;;;-0.43;58.45;99953.13;5186413;28;20088;-67
2022/03/10 03:05:28;;;;;;;58.75;23.75;;;;;;;-0.44;58.04;99954.88;5200154;28;20142;-67
2022/03/10 03:08:18;;;;;;;57.50;23.75;;;;;;;-0.49;58.96;99956.81;5179217;28;20123;-67
2022/03/10 03:11:08;;;;;;;72.38;24.67;;;;;;;-0.52;59.18;99952.53;5186572;28;20099;-67
2022/03/10 03:13:59;;;;;;;53.13;21.83;;;;;;;-0.32;58.90;99964.06;5181650;28;20065;-67
2022/03/10 03:16:55;;;;;;;56.88;23.55;;;;;;;-0.29;58.50;99961.34;5198741;28;20419;-67
2022/03/10 03:19:45;;;;;;;55.67;22.92;;;;;;;-0.34;58.59;99955.41;5188948;28;20077;-66
2022/03/10 03:22:35;;;;;;;63.35;25.58;;;;;;;-0.27;58.60;99968.19;5186615;28;20515;-67
2022/03/10 03:25:25;;;;;;;62.83;23.45;;;;;;;-0.46;59.65;99964.53;5192317;28;20061;-67
2022/03/10 03:28:15;;;;;;;55.35;22.33;;;;;;;-0.57;60.49;99975.25;5185577;28;20057;-66
2022/03/10 03:31:05;;;;;;;60.00;24.55;;;;;;;-0.57;61.48;99972.66;5180955;28;20119;-66
2022/03/10 03:33:56;;;;;;;60.13;23.80;;;;;;;-0.42;61.33;99963.50;5194236;28;20088;-66
2022/03/10 03:36:46;;;;;;;62.50;25.23;;;;;;;-0.64;62.06;99973.75;5185556;28;20045;-66
2022/03/10 03:39:36;;;;;;;88.03;25.67;;;;;;;-0.89;61.45;99946.78;5198361;28;20427;-66
2022/03/10 03:42:34;;;;;;;58.75;25.23;;;;;;;-0.64;61.74;99973.75;5187931;28;20049;-66
2022/03/10 03:45:24;;;;;;;57.67;24.08;;;;;;;-0.58;61.46;99981.38;5184432;28;20462;-66
2022/03/10 03:48:14;;;;;;;64.15;24.80;;;;;;;-0.72;61.93;99974.03;5196592;28;20057;-66
2022/03/10 03:51:05;;;;;;;59.58;24.58;;;;;;;-0.73;62.92;99984.47;5183456;28;20093;-66
2022/03/10 03:53:55;;;;;;;66.72;25.30;;;;;;;-0.73;61.25;99954.09;5192166;28;20053;-66
2022/03/10 03:56:45;;;;;;;60.08;25.13;;;;;;;-0.47;60.74;99989.69;5179451;28;20812;-66
2022/03/10 03:59:36;;;;;;;59.05;23.52;;;;;;;-0.62;61.13;99987.59;5188023;28;20076;-66
2022/03/10 04:02:25;;;;;;;61.95;25.02;;;;;;;-0.71;61.25;99986.13;5184485;28;20159;-66
2022/03/10 04:05:16;;;;;;;61.97;24.50;;;;;;;-0.68;60.12;99990.41;5195910;28;20081;-66
2022/03/10 04:08:07;;;;;;;56.90;24.65;;;;;;;-0.80;61.71;99985.56;5193206;28;20515;-66
2022/03/10 04:10:57;;;;;;;64.38;25.35;;;;;;;-0.77;62.31;99990.69;5185735;28;20041;-66
2022/03/10 04:13:47;;;;;;;58.10;25.15;;;;;;;-0.75;62.47;99994.09;5192507;28;20597;-66
2022/03/10 04:16:40;;;;;;;63.88;26.20;;;;;;;-0.53;61.51;99995.13;5186807;28;20068;-66
2022/03/10 04:19:30;;;;;;;58.50;24.45;;;;;;;-0.67;60.97;99986.88;5202779;28;20050;-66
2022/03/10 04:22:20;;;;;;;62.80;23.92;;;;;;;-0.68;59.95;99986.94;5183116;28;20089;-66
2022/03/10 04:25:11;;;;;;;61.58;24.63;;;;;;;-0.86;60.72;99981.44;5188800;28;20053;-66
2022/03/10 04:28:01;;;;;;;57.80;25.30;;;;;;;-0.80;62.89;99985.56;5185738;28;20519;-66
2022/03/10 04:30:51;;;;;;;63.85;24.92;;;;;;;-0.61;61.36;99991.91;5182646;28;20176;-66
2022/03/10 04:33:44;;;;;;;61.50;24.23;;;;;;;-0.83;60.60;99999.56;5188642;28;20415;-66
2022/03/10 04:36:35;;;;;;;54.97;23.58;;;;;;;-0.88;60.53;99992.78;5187143;28;20149;-66
2022/03/10 04:39:25;;;;;;;80.18;27.50;;;;;;;-1.05;63.18;99995.91;5184252;28;20050;-66
2022/03/10 04:42:14;;;;;;;60.17;25.02;;;;;;;-0.78;61.30;99996.81;5187289;28;20053;-66
2022/03/10 04:45:06;;;;;;;58.97;23.20;;;;;;;-0.65;60.45;99999.88;5180376;28;20061;-65
2022/03/10 04:47:56;;;;;;;68.13;25.58;;;;;;;-0.79;61.31;99995.09;5182610;28;20440;-66
2022/03/10 04:50:48;;;;;;;60.63;24.40;;;;;;;-0.89;61.03;99993.66;5183230;28;20052;-66
2022/03/10 04:53:38;;;;;;;64.35;28.13;;;;;;;-1.09;62.72;99989.94;5184775;28;20132;-66
2022/03/10 04:56:29;;;;;;;64.35;27.88;;;;;;;-0.73;61.02;99989.69;5182235;28;20061;-66
2022/03/10 04:59:19;;;;;;;67.85;25.33;;;;;;;-0.92;61.83;99978.16;5193169;28;20053;-66
2022/03/10 05:02:09;;;;;;;66.03;26.30;;;;;;;-1.08;62.20;99970.81;5185437;28;20057;-66
2022/03/10 05:04:59;;;;;;;59.60;24.95;;;;;;;-1.17;61.09;99984.09;5185106;28;20116;-66
2022/03/10 05:07:49;;;;;;;59.15;24.20;;;;;;;-1.25;61.50;99981.72;5188938;28;20077;-65
2022/03/10 05:10:39;;;;;;;60.30;24.65;;;;;;;-1.43;61.03;99957.09;5187139;28;20614;-65
2022/03/10 05:13:29;;;;;;;59.60;24.90;;;;;;;-1.26;62.53;99958.34;5180568;28;20061;-66
2022/03/10 05:16:19;;;;;;;59.15;23.67;;;;;;;-1.06;61.41;99971.63;5162861;28;20124;-66
2022/03/10 05:19:09;;;;;;;55.17;23.60;;;;;;;-1.18;61.26;99961.59;5186420;28;20511;-66
2022/03/10 05:21:59;;;;;;;55.38;23.85;;;;;;;-1.30;61.15;99974.94;5188723;28;20516;-66
2022/03/10 05:24:50;;;;;;;57.53;23.60;;;;;;;-1.37;61.68;99963.03;5182943;28;20050;-66
2022/03/10 05:27:41;;;;;;;63.15;24.23;;;;;;;-1.51;62.88;99960.81;5194315;28;20547;-65
2022/03/10 05:30:32;;;;;;;66.80;24.90;;;;;;;-1.72;63.99;99959.69;5194908;28;20550;-66
2022/03/10 05:33:22;;;;;;;63.53;24.08;;;;;;;-1.65;64.20;99961.22;5191971;28;20061;-66
2022/03/10 05:36:12;;;;;;;77.30;26.48;;;;;;;-1.36;63.41;99968.16;5191961;28;20068;-66
2022/03/10 05:39:04;;;;;;;68.32;26.13;;;;;;;-1.34;63.23;99952.53;5182737;28;20364;-65
2022/03/10 05:41:54;;;;;;;78.75;26.05;;;;;;;-1.46;64.25;99969.34;5186079;28;20057;-65
2022/03/10 05:44:44;;;;;;;71.32;25.05;;;;;;;-1.42;63.33;99961.41;5189968;28;20046;-65
2022/03/10 05:47:35;;;;;;;65.18;24.60;;;;;;;-1.32;64.75;99984.56;5192604;28;20173;-66
2022/03/10 05:50:26;;;;;;;71.90;25.70;;;;;;;-1.36;64.48;99981.19;5190717;28;20064;-65
2022/03/10 05:53:17;;;;;;;67.85;25.67;;;;;;;-1.69;66.06;99977.78;5188667;28;20053;-66
2022/03/10 05:56:08;;;;;;;65.75;24.85;;;;;;;-1.36;64.77;99986.38;5185104;28;20058;-67
2022/03/10 05:58:58;;;;;;;64.18;25.52;;;;;;;-1.19;63.72;99994.56;5174210;28;20050;-67
2022/03/10 06:01:49;;;;;;;62.88;24.95;;;;;;;-1.30;64.28;99987.97;5178382;28;20050;-67
2022/03/10 06:04:39;;;;;;;67.22;23.65;;;;;;;-1.35;63.67;99971.66;5186036;28;20053;-67
2022/03/10 06:07:31;;;;;;;73.00;25.40;;;;;;;-1.27;63.32;99993.91;5189497;28;20428;-67
2022/03/10 06:10:22;;;;;;;71.90;26.02;;;;;;;-1.29;63.83;99992.25;5188132;28;20052;-66
2022/03/10 06:13:12;;;;;;;58.15;23.45;;;;;;;-1.19;63.62;99993.72;5195225;28;20523;-66
2022/03/10 06:16:03;;;;;;;64.80;23.95;;;;;;;-1.14;63.29;99986.59;5180319;28;20139;-67
2022/03/10 06:18:54;;;;;;;61.20;23.95;;;;;;;-1.27;63.75;99973.09;5190090;28;20059;-66
2022/03/10 06:21:44;;;;;;;56.60;23.52;;;;;;;-1.02;62.37;99981.03;5184769;28;20436;-66
2022/03/10 06:24:34;;;;;;;62.50;25.33;;;;;;;-1.22;64.11;99984.25;5189591;28;20466;-66
2022/03/10 06:27:24;;;;;;;63.65;25.77;;;;;;;-1.21;64.41;99987.69;5183310;28;20060;-66
2022/03/10 06:30:14;;;;;;;60.22;26.00;;;;;;;-1.12;63.53;99991.78;5185201;28;20045;-66
2022/03/10 06:33:04;;;;;;;65.38;26.98;;;;;;;-1.08;63.72;99983.81;5182949;28;20053;-66
2022/03/10 06:35:55;;;;;;;63.08;25.27;;;;;;;-1.07;63.75;99993.31;5186121;28;20519;-65
2022/03/10 06:38:45;;;;;;;60.35;24.38;;;;;;;-0.82;62.83;99983.03;5201063;28;20073;-69
2022/03/10 06:41:35;;;;;;;56.72;23.90;;;;;;;-0.53;63.30;100004.66;5178807;28;20562;-66
2022/03/10 06:44:25;;;;;;;65.82;24.48;;;;;;;-0.51;61.36;100002.88;5194583;28;20195;-66
2022/03/10 06:47:15;;;;;;;59.67;24.77;;;;;;;-0.10;60.85;99993.72;5181290;28;20057;-66
2022/03/10 06:50:06;;;;;;;58.13;24.63;;;;;;;0.20;60.47;100002.22;5188817;28;20049;-67
2022/03/10 06:52:56;;;;;;;59.88;24.42;;;;;;;0.44;59.52;100010.06;5188771;28;20520;-67
2022/03/10 06:55:47;;;;;;;57.03;26.30;;;;;;;0.76;59.03;100011.47;5182403;28;20054;-67
2022/03/10 06:58:40;;;;;;;57.05;23.55;;;;;;;1.31;58.22;100013.75;5184592;28;20554;-66
2022/03/10 07:01:30;;;;;;;55.85;24.73;;;;;;;2.25;55.29;100011.59;5178807;28;20056;-66
2022/03/10 07:04:21;;;;;;;53.83;23.42;;;;;;;2.94;53.22;100010.28;5185154;28;20116;-66
2022/03/10 07:07:11;;;;;;;60.22;23.92;;;;;;;3.36;52.24;100017.06;5184865;28;20056;-66
2022/03/10 07:10:01;;;;;;;53.15;22.75;;;;;;;2.57;54.02;100023.25;5197330;28;20140;-66
2022/03/10 07:12:51;;;;;;;59.90;23.05;;;;;;;2.39;53.44;100024.09;5185031;28;20121;-67
2022/03/10 07:15:42;;;;;;;48.65;21.77;;;;;;;2.35;53.49;100018.13;5190615;28;20425;-66
2022/03/10 07:18:32;;;;;;;57.67;22.60;;;;;;;2.41;54.01;100031.84;5178246;28;20096;-67
2022/03/10 07:21:23;;;;;;;48.25;22.20;;;;;;;2.39;54.49;100018.84;5192978;28;20180;-67
2022/03/10 07:24:13;;;;;;;49.63;21.38;;;;;;;2.23;55.51;100030.91;5195670;28;20415;-66
2022/03/10 07:27:03;;;;;;;52.72;22.00;;;;;;;3.06;53.52;100038.53;5183122;28;20467;-67
2022/03/10 07:29:53;;;;;;;53.17;21.40;;;;;;;3.24;52.83;100010.59;5195448;28;20471;-67
2022/03/10 07:32:43;;;;;;;58.20;22.15;;;;;;;3.12;52.92;100033.03;5183494;28;20057;-66
2022/03/10 07:35:33;;;;;;;69.68;22.27;;;;;;;3.48;52.79;100043.53;5182458;28;20053;-66
2022/03/10 07:38:23;;;;;;;58.97;21.63;;;;;;;4.60;50.95;100043.19;5192068;28;20057;-66
2022/03/10 07:41:14;;;;;;;70.47;21.45;;;;;;;5.18;49.83;100041.84;5184138;28;20056;-67
2022/03/10 07:44:04;;;;;;;53.83;22.00;;;;;;;5.84;47.67;100048.69;5178123;28;20061;-66
2022/03/10 07:46:54;;;;;;;64.93;23.52;;;;;;;5.22;48.61;100042.53;5178952;28;20448;-66
2022/03/10 07:49:44;;;;;;;60.78;22.40;;;;;;;4.78;51.13;100046.63;5184069;28;20064;-67
2022/03/10 07:52:34;;;;;;;64.13;21.92;;;;;;;6.02;47.80;100037.09;5201839;28;20144;-66
2022/03/10 07:55:26;;;;;;;51.22;21.13;;;;;;;6.98;45.91;100029.59;5184935;28;20408;-66
2022/03/10 07:58:16;;;;;;;50.05;22.00;;;;;;;6.71;45.79;100038.25;5185261;28;20046;-67
2022/03/10 08:01:07;;;;;;;55.60;21.15;;;;;;;6.72;46.27;100033.81;5185260;28;20262;-67
2022/03/10 08:03:57;;;;;;;61.20;20.90;;;;;;;7.25;45.39;99992.72;5176983;28;20061;-68
2022/03/10 08:06:47;;;;;;;118.25;23.67;;;;;;;8.36;43.89;100032.00;5194837;28;20050;-67
2022/03/10 08:09:37;;;;;;;137.48;27.38;;;;;;;7.24;45.45;100026.16;5190777;28;20064;-67
2022/03/10 08:12:32;;;;;;;79.97;21.20;;;;;;;9.19;42.62;100018.34;5183404;28;20188;-67
2022/03/10 08:15:23;;;;;;;67.68;21.05;;;;;;;10.09;40.05;100030.22;5193649;28;20088;-67
2022/03/10 08:18:13;;;;;;;75.32;20.42;;;;;;;10.73;38.63;100032.44;5193030;28;20135;-67
2022/03/10 08:21:03;;;;;;;81.35;22.95;;;;;;;10.84;39.11;100034.25;5182844;28;20104;-67
2022/03/10 08:23:53;;;;;;;82.10;20.80;;;;;;;11.13;39.85;100012.56;5195464;28;20056;-67
2022/03/10 08:26:43;;;;;;;56.63;21.67;;;;;;;10.93;39.24;100022.09;5181787;28;20179;-67
2022/03/10 08:29:35;;;;;;;53.50;19.05;;;;;;;9.50;41.74;100016.94;5190366;28;20049;-67
2022/03/10 08:32:26;;;;;;;54.75;20.25;;;;;;;9.96;40.48;100010.91;5184764;28;20061;-67
2022/03/10 08:35:16;;;;;;;50.88;20.60;;;;;;;10.68;41.87;100010.72;5192341;28;20060;-68
2022/03/10 08:38:07;;;;;;;34.65;16.90;;;;;;;12.65;35.11;100006.97;5192029;28;20629;-67
2022/03/10 08:40:59;;;;;;;39.13;17.40;;;;;;;12.16;35.91;100002.34;5181256;28;20159;-67
2022/03/10 08:43:48;;;;;;;28.60;15.10;;;;;;;12.69;34.73;100003.06;5192202;28;20053;-67
2022/03/10 08:46:40;;;;;;;36.67;16.20;;;;;;;13.29;36.37;99987.19;5193581;28;20062;-67
2022/03/10 08:49:30;;;;;;;24.05;13.02;;;;;;;14.42;31.59;99981.28;5194442;28;20050;-67
2022/03/10 08:52:20;;;;;;;35.05;16.02;;;;;;;14.22;32.86;99987.66;5194425;28;20518;-68
2022/03/10 08:55:12;;;;;;;31.33;15.95;;;;;;;14.48;33.89;99983.38;5191527;28;20049;-67
2022/03/10 08:58:02;;;;;;;27.38;14.73;;;;;;;13.95;31.21;99973.22;5196275;28;20072;-67
2022/03/10 09:00:54;;;;;;;24.50;12.98;;;;;;;14.68;31.38;99978.00;5179460;28;20176;-65
2022/03/10 09:04:04;;;;;;;23.63;13.68;;;;;;;15.41;31.92;99973.56;5183538;28;20064;-68
2022/03/10 09:06:55;;;;;;;25.17;13.38;;;;;;;15.43;30.61;99966.25;5176200;28;20077;-68
2022/03/10 09:09:47;;;;;;;24.65;14.75;;;;;;;15.93;31.57;99965.72;5198669;28;20049;-67
2022/03/10 09:12:39;;;;;;;23.40;13.95;;;;;;;16.77;28.39;99972.34;5194812;28;20207;-68
2022/03/10 09:15:30;;;;;;;27.95;13.90;;;;;;;16.30;29.68;99967.34;5178244;28;20526;-68
2022/03/10 09:18:20;;;;;;;20.52;13.43;;;;;;;16.54;28.73;99963.97;5199940;28;20135;-68
2022/03/10 09:21:17;;;;;;;22.02;13.90;;;;;;;16.36;30.33;99966.72;5182777;28;20139;-68
2022/03/10 09:24:08;;;;;;;26.27;12.75;;;;;;;16.93;28.78;99949.31;5181559;28;20054;-68
2022/03/10 09:26:59;;;;;;;20.40;13.38;;;;;;;16.99;29.44;99948.66;5182546;28;20061;-68
2022/03/10 09:29:49;;;;;;;21.83;13.63;;;;;;;16.94;28.71;99949.13;5190270;28;20061;-68
2022/03/10 09:32:43;;;;;;;20.67;11.82;;;;;;;17.38;28.43;99949.78;5181403;28;20803;-68
2022/03/10 09:35:33;;;;;;;21.15;12.52;;;;;;;17.23;27.64;99943.38;5194548;28;20128;-68
2022/03/10 09:38:24;;;;;;;255.57;21.92;;;;;;;17.37;27.67;99945.41;5185111;28;20491;-68
2022/03/10 09:41:16;;;;;;;19.00;12.13;;;;;;;17.29;27.41;99934.69;5185896;28;20131;-67
2022/03/10 09:44:14;;;;;;;21.42;11.60;;;;;;;17.63;27.16;99944.44;5176712;28;20485;-68
2022/03/10 09:47:05;;;;;;;20.95;11.65;;;;;;;17.28;28.72;99935.66;5180137;28;20165;-68
2022/03/10 09:49:55;;;;;;;22.15;12.15;;;;;;;17.94;28.30;99938.44;5187145;28;20058;-67
2022/03/10 09:52:46;;;;;;;20.10;11.70;;;;;;;18.28;27.77;99941.78;5181260;28;20183;-68
2022/03/10 09:55:36;;;;;;;20.23;12.15;;;;;;;17.70;27.57;99937.41;5172642;28;20061;-68
2022/03/10 09:58:26;;;;;;;22.52;11.40;;;;;;;16.98;28.92;99937.09;5186192;28;20426;-68
2022/03/10 10:01:17;;;;;;;22.13;12.80;;;;;;;18.36;27.54;99930.19;5184200;28;20183;-67
2022/03/10 10:04:07;;;;;;;15.55;10.80;;;;;;;19.15;25.95;99923.03;5183394;28;20159;-67
2022/03/10 10:07:05;;;;;;;18.42;10.77;;;;;;;18.73;26.38;99910.78;5175562;28;20136;-68
2022/03/10 10:09:57;;;;;;;19.42;10.98;;;;;;;18.75;26.58;99916.00;5186928;28;20458;-67
2022/03/10 10:12:48;;;;;;;31.27;11.13;;;;;;;19.28;25.93;99914.38;5196299;28;20056;-67
2022/03/10 10:15:40;;;;;;;15.05;10.02;;;;;;;18.91;26.30;99901.66;5185911;28;20149;-68
2022/03/10 10:18:31;;;;;;;17.55;9.75;;;;;;;19.16;24.39;99905.88;5176273;28;20180;-68
2022/03/10 10:21:34;;;;;;;16.05;9.75;;;;;;;18.68;26.29;99890.81;5195049;28;20053;-67
2022/03/10 10:24:27;;;;;;;13.38;9.40;;;;;;;19.41;24.60;99892.28;5193808;28;20290;-68
2022/03/10 10:27:23;;;;;;;12.77;8.73;;;;;;;19.97;24.92;99892.88;5191507;28;20057;-68
2022/03/10 10:30:13;;;;;;;13.75;7.57;;;;;;;19.06;25.34;99875.69;5183750;28;20052;-68
2022/03/10 10:33:03;;;;;;;21.60;6.80;;;;;;;18.83;25.47;99874.81;5187177;28;20127;-68
2022/03/10 10:36:15;;;;;;;11.95;6.20;;;;;;;17.68;25.48;99864.34;5176492;28;20057;-68
2022/03/10 10:39:15;;;;;;;9.48;6.07;;;;;;;17.13;26.77;99875.69;5189143;28;20799;-68
2022/03/10 10:42:15;;;;;;;9.07;6.05;;;;;;;17.16;27.29;99870.00;5184989;28;20045;-68
2022/03/10 10:45:34;;;;;;;13.60;6.03;;;;;;;16.91;25.44;99866.41;5192252;28;20096;-67
2022/03/10 10:48:25;;;;;;;11.25;5.53;;;;;;;17.06;27.35;99866.63;5182089;28;20096;-68
2022/03/10 10:51:41;;;;;;;7.18;5.00;;;;;;;16.40;28.05;99846.78;5193096;28;20420;-68
2022/03/10 10:54:31;;;;;;;7.80;5.00;;;;;;;16.60;26.96;99858.09;5196524;28;20581;-67
2022/03/10 10:57:22;;;;;;;6.93;4.72;;;;;;;16.29;28.51;99825.66;5187852;28;20667;-67
2022/03/10 11:00:13;;;;;;;9.60;4.32;;;;;;;16.23;26.75;99853.06;5191864;28;20054;-67
2022/03/10 11:03:21;;;;;;;10.20;4.30;;;;;;;15.78;27.66;99852.28;5182853;28;20065;-67
2022/03/10 11:06:12;;;;;;;9.35;4.90;;;;;;;16.31;26.01;99850.41;5182895;28;20092;-67
2022/03/10 11:09:02;;;;;;;8.80;4.60;;;;;;;15.95;27.63;99846.03;5196478;28;20061;-67
2022/03/10 11:11:53;;;;;;;8.25;4.60;;;;;;;15.70;26.52;99846.88;5182962;28;20428;-67
2022/03/10 11:14:44;;;;;;;11.10;4.57;;;;;;;15.81;26.26;99846.63;5195518;28;20190;-67
2022/03/10 11:17:36;;;;;;;8.63;5.40;;;;;;;15.14;28.12;99840.03;5191992;28;20057;-67
2022/03/10 11:20:29;;;;;;;9.57;5.25;;;;;;;15.90;27.50;99832.31;5181306;28;20141;-67
2022/03/10 11:23:44;;;;;;;9.57;4.70;;;;;;;15.85;27.29;99829.25;5178483;28;20056;-67
2022/03/10 11:26:40;;;;;;;11.40;5.53;;;;;;;15.89;27.08;99830.63;5193553;28;20057;-67
2022/03/10 11:29:33;;;;;;;12.38;4.70;;;;;;;16.67;26.49;99826.97;5193325;28;20057;-67
2022/03/10 11:32:30;;;;;;;10.25;5.90;;;;;;;16.34;26.70;99813.47;5181101;28;20053;-67
2022/03/10 11:35:30;;;;;;;8.48;5.25;;;;;;;16.40;27.22;99802.13;5193388;28;20124;-67
2022/03/10 11:38:30;;;;;;;7.63;4.85;;;;;;;16.33;25.68;99817.16;5195380;28;20593;-67
2022/03/10 11:41:24;;;;;;;6.95;4.57;;;;;;;16.33;26.27;99798.41;5182801;28;20043;-67
2022/03/10 11:44:20;;;;;;;8.68;4.75;;;;;;;16.05;25.30;99808.47;5181913;28;20046;-66
2022/03/10 11:47:15;;;;;;;10.88;5.82;;;;;;;16.47;25.86;99806.84;5179463;28;20435;-66
2022/03/10 11:50:24;;;;;;;7.05;4.20;;;;;;;15.75;26.25;99801.78;5172113;28;20049;-66
2022/03/10 11:53:14;;;;;;;7.38;4.35;;;;;;;16.43;26.61;99792.94;5191839;28;20056;-66
2022/03/10 11:56:04;;;;;;;4.82;3.47;;;;;;;16.61;24.61;99799.00;5188924;28;20451;-67
2022/03/10 11:58:55;;;;;;;5.93;2.72;;;;;;;16.06;24.87;99788.78;5182891;28;20046;-68
2022/03/10 12:01:45;;;;;;;6.78;3.60;;;;;;;15.59;25.12;99794.44;5181336;28;20046;-67
2022/03/10 12:04:39;;;;;;;6.18;3.85;;;;;;;16.39;25.72;99768.34;5182834;28;20530;-67
2022/03/10 12:07:30;;;;;;;5.80;3.78;;;;;;;16.83;25.19;99770.81;5185347;28;20046;-67
2022/03/10 12:10:22;;;;;;;7.00;4.88;;;;;;;15.93;26.70;99766.97;5187443;28;20070;-66
2022/03/10 12:13:49;;;;;;;6.70;4.55;;;;;;;16.74;25.24;99757.53;5193562;28;20447;-69
2022/03/10 12:16:42;;;;;;;7.85;4.70;;;;;;;15.69;25.29;99759.63;5129723;28;20105;-68
2022/03/10 12:20:10;;;;;;;7.80;4.50;;;;;;;16.00;25.23;99764.50;5192205;28;20195;-67
2022/03/10 12:23:03;;;;;;;5.47;3.97;;;;;;;15.63;26.49;99755.75;5194428;28;20056;-67
2022/03/10 12:26:04;;;;;;;9.13;4.47;;;;;;;15.93;25.90;99751.75;5190590;28;20046;-67
2022/03/10 12:28:57;;;;;;;9.25;4.40;;;;;;;15.88;26.55;99753.22;5189128;28;20527;-67
2022/03/10 12:31:53;;;;;;;6.60;4.57;;;;;;;16.45;25.28;99724.00;5185557;23;20076;-85
2022/03/10 12:34:46;;;;;;;9.77;4.80;;;;;;;16.76;24.85;99723.44;5182377;28;20042;-85
2022/03/10 12:37:35;;;;;;;10.77;4.70;;;;;;;15.80;25.44;99726.47;5172244;28;20046;-85
2022/03/10 12:40:30;;;;;;;6.63;4.57;;;;;;;15.72;24.82;99728.06;5171976;28;20064;-86
2022/03/10 12:43:26;;;;;;;6.60;4.72;;;;;;;16.11;24.20;99740.97;5183927;28;20054;-84
2022/03/10 12:46:17;;;;;;;7.75;5.07;;;;;;;16.25;24.64;99712.75;5167805;28;20061;-84
2022/03/10 12:49:17;;;;;;;8.65;4.60;;;;;;;16.56;24.53;99710.31;5175810;28;20050;-85
2022/03/10 12:52:18;;;;;;;8.55;4.40;;;;;;;16.11;23.72;99703.50;5188400;28;20577;-85
2022/03/10 12:55:10;;;;;;;9.68;4.90;;;;;;;16.01;25.17;99726.03;5185966;28;20049;-86
2022/03/10 12:58:01;;;;;;;11.48;5.00;;;;;;;15.68;25.00;99718.69;5187587;28;20069;-85
2022/03/10 13:01:03;;;;;;;8.82;5.43;;;;;;;16.60;24.95;99698.28;5182397;28;20053;-84
2022/03/10 13:03:58;;;;;;;7.40;4.35;;;;;;;16.04;24.82;99672.22;5182567;28;20053;-84
2022/03/10 13:06:49;;;;;;;7.63;4.85;;;;;;;15.87;24.60;99666.81;5183264;28;20060;-84
2022/03/10 13:09:39;;;;;;;10.40;5.22;;;;;;;16.07;24.40;99671.91;5184206;28;20058;-84
2022/03/10 13:12:32;;;;;;;9.02;5.50;;;;;;;15.91;25.22;99694.91;5187139;28;20125;-86
2022/03/10 13:15:24;;;;;;;11.95;5.30;;;;;;;15.99;25.14;99675.38;5175439;28;20531;-83
2022/03/10 13:18:14;;;;;;;13.75;5.82;;;;;;;15.85;24.68;99674.16;5182957;28;20042;-84
2022/03/10 13:21:06;;;;;;;11.68;5.30;;;;;;;16.03;24.97;99649.16;5186054;28;20033;-85
2022/03/10 13:23:56;;;;;;;9.13;5.05;;;;;;;15.13;24.77;99646.88;5189124;28;20081;-86